sensor_id;sensor_type;location;lat;lon;timestamp;temperature;humidity
3055;DHT22;1537;52.018;8.542;2024-01-06T00:02:28;6.30;99.90
3055;DHT22;1537;52.018;8.542;2024-01-06T00:05:52;6.30;99.90
3055;DHT22;1537;52.018;8.542;2024-01-06T00:09:16;6.30;99.90
3055;DHT22;1537;52.018;8.542;2024-01-06T00:12:40;6.30;99.90
3055;DHT22;1537;52.018;8.542;2024-01-06T00:16:06;6.30;99.90
3055;DHT22;1537;52.018;8.542;2024-01-06T00:19:30;6.30;99.90
3055;DHT22;1537;52.018;8.542;2024-01-06T00:22:54;6.30;99.90
3055;DHT22;1537;52.018;8.542;2024-01-06T00:26:19;6.30;99.90
3055;DHT22;1537;52.018;8.542;2024-01-06T00:29:43;6.30;99.90
3055;DHT22;1537;52.018;8.542;2024-01-06T00:33:08;6.20;99.90
3055;DHT22;1537;52.018;8.542;2024-01-06T00:36:32;6.20;99.90
3055;DHT22;1537;52.018;8.542;2024-01-06T00:39:59;6.20;99.90
3055;DHT22;1537;52.018;8.542;2024-01-06T00:43:23;6.30;99.90
3055;DHT22;1537;52.018;8.542;2024-01-06T00:46:47;6.30;99.90
3055;DHT22;1537;52.018;8.542;2024-01-06T00:50:13;6.30;99.90
3055;DHT22;1537;52.018;8.542;2024-01-06T00:53:37;6.20;99.90
3055;DHT22;1537;52.018;8.542;2024-01-06T00:57:01;6.30;99.90
3055;DHT22;1537;52.018;8.542;2024-01-06T01:00:28;6.30;99.90
3055;DHT22;1537;52.018;8.542;2024-01-06T01:03:53;6.30;99.90
3055;DHT22;1537;52.018;8.542;2024-01-06T01:07:19;6.30;99.90
3055;DHT22;1537;52.018;8.542;2024-01-06T01:10:42;6.30;99.90
3055;DHT22;1537;52.018;8.542;2024-01-06T01:14:07;6.30;99.90
3055;DHT22;1537;52.018;8.542;2024-01-06T01:17:31;6.30;99.90
3055;DHT22;1537;52.018;8.542;2024-01-06T01:20:55;6.30;99.90
3055;DHT22;1537;52.018;8.542;2024-01-06T01:24:22;6.40;99.90
3055;DHT22;1537;52.018;8.542;2024-01-06T01:27:46;6.40;99.90
3055;DHT22;1537;52.018;8.542;2024-01-06T01:31:10;6.40;99.90
3055;DHT22;1537;52.018;8.542;2024-01-06T01:34:35;6.40;99.90
3055;DHT22;1537;52.018;8.542;2024-01-06T01:38:02;6.40;99.90
3055;DHT22;1537;52.018;8.542;2024-01-06T01:41:28;6.40;99.90
3055;DHT22;1537;52.018;8.542;2024-01-06T01:44:54;6.40;99.90
3055;DHT22;1537;52.018;8.542;2024-01-06T01:48:19;6.30;99.90
3055;DHT22;1537;52.018;8.542;2024-01-06T01:51:45;6.30;99.90
3055;DHT22;1537;52.018;8.542;2024-01-06T01:55:09;6.20;99.90
3055;DHT22;1537;52.018;8.542;2024-01-06T01:58:38;6.20;99.90
3055;DHT22;1537;52.018;8.542;2024-01-06T02:02:03;6.20;99.90
3055;DHT22;1537;52.018;8.542;2024-01-06T02:05:36;6.10;99.90
3055;DHT22;1537;52.018;8.542;2024-01-06T02:09:00;6.10;99.90
3055;DHT22;1537;52.018;8.542;2024-01-06T02:12:24;6.00;99.90
3055;DHT22;1537;52.018;8.542;2024-01-06T02:15:50;6.10;99.90
3055;DHT22;1537;52.018;8.542;2024-01-06T02:19:16;6.00;99.90
3055;DHT22;1537;52.018;8.542;2024-01-06T02:22:42;5.90;99.90
3055;DHT22;1537;52.018;8.542;2024-01-06T02:26:07;6.00;99.90
3055;DHT22;1537;52.018;8.542;2024-01-06T02:29:31;6.10;99.90
3055;DHT22;1537;52.018;8.542;2024-01-06T02:32:55;6.10;99.90
3055;DHT22;1537;52.018;8.542;2024-01-06T02:36:19;6.00;99.90
3055;DHT22;1537;52.018;8.542;2024-01-06T02:39:45;6.00;99.90
3055;DHT22;1537;52.018;8.542;2024-01-06T02:43:08;5.90;99.90
3055;DHT22;1537;52.018;8.542;2024-01-06T02:46:34;5.80;99.90
3055;DHT22;1537;52.018;8.542;2024-01-06T02:49:59;5.80;99.90
3055;DHT22;1537;52.018;8.542;2024-01-06T02:53:23;5.80;99.90
3055;DHT22;1537;52.018;8.542;2024-01-06T02:56:48;5.90;99.90
3055;DHT22;1537;52.018;8.542;2024-01-06T03:00:15;5.90;99.90
3055;DHT22;1537;52.018;8.542;2024-01-06T03:03:39;5.90;99.90
3055;DHT22;1537;52.018;8.542;2024-01-06T03:07:03;5.90;99.90
3055;DHT22;1537;52.018;8.542;2024-01-06T03:10:27;5.90;99.90
3055;DHT22;1537;52.018;8.542;2024-01-06T03:13:55;5.90;99.90
3055;DHT22;1537;52.018;8.542;2024-01-06T03:17:20;6.00;99.90
3055;DHT22;1537;52.018;8.542;2024-01-06T03:20:44;6.00;99.90
3055;DHT22;1537;52.018;8.542;2024-01-06T03:24:08;5.90;99.90
3055;DHT22;1537;52.018;8.542;2024-01-06T03:27:32;6.00;99.90
3055;DHT22;1537;52.018;8.542;2024-01-06T03:30:58;6.00;99.90
3055;DHT22;1537;52.018;8.542;2024-01-06T03:34:22;6.00;99.90
3055;DHT22;1537;52.018;8.542;2024-01-06T03:37:45;6.00;99.90
3055;DHT22;1537;52.018;8.542;2024-01-06T03:41:09;6.00;99.90
3055;DHT22;1537;52.018;8.542;2024-01-06T03:44:33;6.00;99.90
3055;DHT22;1537;52.018;8.542;2024-01-06T03:47:58;6.10;99.90
3055;DHT22;1537;52.018;8.542;2024-01-06T03:51:22;6.00;99.90
3055;DHT22;1537;52.018;8.542;2024-01-06T03:54:46;6.00;99.90
3055;DHT22;1537;52.018;8.542;2024-01-06T03:58:10;6.00;99.90
3055;DHT22;1537;52.018;8.542;2024-01-06T04:01:34;6.10;99.90
3055;DHT22;1537;52.018;8.542;2024-01-06T04:05:02;6.10;99.90
3055;DHT22;1537;52.018;8.542;2024-01-06T04:08:27;6.10;99.90
3055;DHT22;1537;52.018;8.542;2024-01-06T04:11:53;6.10;99.90
3055;DHT22;1537;52.018;8.542;2024-01-06T04:15:17;6.10;99.90
3055;DHT22;1537;52.018;8.542;2024-01-06T04:18:41;6.10;99.90
3055;DHT22;1537;52.018;8.542;2024-01-06T04:22:07;6.10;99.90
3055;DHT22;1537;52.018;8.542;2024-01-06T04:25:30;6.10;99.90
3055;DHT22;1537;52.018;8.542;2024-01-06T04:28:54;6.10;99.90
3055;DHT22;1537;52.018;8.542;2024-01-06T04:32:18;6.00;99.90
3055;DHT22;1537;52.018;8.542;2024-01-06T04:35:43;6.10;99.90
3055;DHT22;1537;52.018;8.542;2024-01-06T04:39:08;6.20;99.90
3055;DHT22;1537;52.018;8.542;2024-01-06T04:42:31;6.20;99.90
3055;DHT22;1537;52.018;8.542;2024-01-06T04:45:55;6.30;99.90
3055;DHT22;1537;52.018;8.542;2024-01-06T04:49:20;6.30;99.90
3055;DHT22;1537;52.018;8.542;2024-01-06T04:52:44;6.30;99.90
3055;DHT22;1537;52.018;8.542;2024-01-06T04:56:10;6.30;99.90
3055;DHT22;1537;52.018;8.542;2024-01-06T04:59:33;6.20;99.90
3055;DHT22;1537;52.018;8.542;2024-01-06T05:02:57;6.20;99.90
3055;DHT22;1537;52.018;8.542;2024-01-06T05:06:22;6.30;99.90
3055;DHT22;1537;52.018;8.542;2024-01-06T05:09:46;6.30;99.90
3055;DHT22;1537;52.018;8.542;2024-01-06T05:13:12;6.30;99.90
3055;DHT22;1537;52.018;8.542;2024-01-06T05:16:35;6.30;99.90
3055;DHT22;1537;52.018;8.542;2024-01-06T05:20:00;6.20;99.90
3055;DHT22;1537;52.018;8.542;2024-01-06T05:23:23;6.20;99.90
3055;DHT22;1537;52.018;8.542;2024-01-06T05:26:47;6.20;99.90
3055;DHT22;1537;52.018;8.542;2024-01-06T05:30:13;6.10;99.90
3055;DHT22;1537;52.018;8.542;2024-01-06T05:33:37;5.90;99.90
3055;DHT22;1537;52.018;8.542;2024-01-06T05:37:01;5.90;99.90
3055;DHT22;1537;52.018;8.542;2024-01-06T05:40:25;5.90;99.90
3055;DHT22;1537;52.018;8.542;2024-01-06T05:43:49;6.00;99.90
3055;DHT22;1537;52.018;8.542;2024-01-06T05:47:15;5.90;99.90
3055;DHT22;1537;52.018;8.542;2024-01-06T05:50:39;5.90;99.90
3055;DHT22;1537;52.018;8.542;2024-01-06T05:54:04;5.90;99.90
3055;DHT22;1537;52.018;8.542;2024-01-06T05:57:28;5.80;99.90
3055;DHT22;1537;52.018;8.542;2024-01-06T06:00:52;5.80;99.90
3055;DHT22;1537;52.018;8.542;2024-01-06T06:04:17;5.80;99.90
3055;DHT22;1537;52.018;8.542;2024-01-06T06:07:42;5.70;99.90
3055;DHT22;1537;52.018;8.542;2024-01-06T06:11:07;5.70;99.90
3055;DHT22;1537;52.018;8.542;2024-01-06T06:14:33;5.80;99.90
3055;DHT22;1537;52.018;8.542;2024-01-06T06:17:58;5.80;99.90
3055;DHT22;1537;52.018;8.542;2024-01-06T06:21:27;5.80;99.90
3055;DHT22;1537;52.018;8.542;2024-01-06T06:24:51;5.70;99.90
3055;DHT22;1537;52.018;8.542;2024-01-06T06:28:16;5.70;99.90
3055;DHT22;1537;52.018;8.542;2024-01-06T06:31:40;5.70;99.90
3055;DHT22;1537;52.018;8.542;2024-01-06T06:35:07;5.70;99.90
3055;DHT22;1537;52.018;8.542;2024-01-06T06:38:32;5.70;99.90
3055;DHT22;1537;52.018;8.542;2024-01-06T06:41:56;5.80;99.90
3055;DHT22;1537;52.018;8.542;2024-01-06T06:45:20;5.80;99.90
3055;DHT22;1537;52.018;8.542;2024-01-06T06:48:46;5.80;99.90
3055;DHT22;1537;52.018;8.542;2024-01-06T06:52:10;5.80;99.90
3055;DHT22;1537;52.018;8.542;2024-01-06T06:55:37;5.60;99.90
3055;DHT22;1537;52.018;8.542;2024-01-06T06:59:02;5.60;99.90
3055;DHT22;1537;52.018;8.542;2024-01-06T07:02:25;5.70;99.90
3055;DHT22;1537;52.018;8.542;2024-01-06T07:05:49;5.70;99.90
3055;DHT22;1537;52.018;8.542;2024-01-06T07:09:14;5.70;99.90
3055;DHT22;1537;52.018;8.542;2024-01-06T07:12:39;5.60;99.90
3055;DHT22;1537;52.018;8.542;2024-01-06T07:16:05;5.50;99.90
3055;DHT22;1537;52.018;8.542;2024-01-06T07:19:40;5.40;99.90
3055;DHT22;1537;52.018;8.542;2024-01-06T07:23:04;5.50;99.90
3055;DHT22;1537;52.018;8.542;2024-01-06T07:26:30;5.50;99.90
3055;DHT22;1537;52.018;8.542;2024-01-06T07:29:55;5.40;99.90
3055;DHT22;1537;52.018;8.542;2024-01-06T07:33:20;5.50;99.90
3055;DHT22;1537;52.018;8.542;2024-01-06T07:36:44;5.50;99.90
3055;DHT22;1537;52.018;8.542;2024-01-06T07:40:09;5.60;99.90
3055;DHT22;1537;52.018;8.542;2024-01-06T07:43:33;5.50;99.90
3055;DHT22;1537;52.018;8.542;2024-01-06T07:47:00;5.50;99.90
3055;DHT22;1537;52.018;8.542;2024-01-06T07:50:27;5.50;99.90
3055;DHT22;1537;52.018;8.542;2024-01-06T07:53:52;5.40;99.90
3055;DHT22;1537;52.018;8.542;2024-01-06T07:57:16;5.40;99.90
3055;DHT22;1537;52.018;8.542;2024-01-06T08:00:40;5.30;99.90
3055;DHT22;1537;52.018;8.542;2024-01-06T08:04:05;5.30;99.90
3055;DHT22;1537;52.018;8.542;2024-01-06T08:07:29;5.30;99.90
3055;DHT22;1537;52.018;8.542;2024-01-06T08:10:53;5.30;99.90
3055;DHT22;1537;52.018;8.542;2024-01-06T08:14:19;5.40;99.90
3055;DHT22;1537;52.018;8.542;2024-01-06T08:17:46;5.40;99.90
3055;DHT22;1537;52.018;8.542;2024-01-06T08:21:11;5.30;99.90
3055;DHT22;1537;52.018;8.542;2024-01-06T08:24:35;5.10;99.90
3055;DHT22;1537;52.018;8.542;2024-01-06T08:28:00;5.00;99.90
3055;DHT22;1537;52.018;8.542;2024-01-06T08:31:25;4.80;99.90
3055;DHT22;1537;52.018;8.542;2024-01-06T08:34:48;4.80;99.90
3055;DHT22;1537;52.018;8.542;2024-01-06T08:38:14;4.80;99.90
3055;DHT22;1537;52.018;8.542;2024-01-06T08:41:38;4.70;99.90
3055;DHT22;1537;52.018;8.542;2024-01-06T08:45:02;4.60;99.90
3055;DHT22;1537;52.018;8.542;2024-01-06T08:48:26;4.60;99.90
3055;DHT22;1537;52.018;8.542;2024-01-06T08:51:53;4.70;99.90
3055;DHT22;1537;52.018;8.542;2024-01-06T08:55:19;4.60;99.90
3055;DHT22;1537;52.018;8.542;2024-01-06T08:58:43;4.50;99.90
3055;DHT22;1537;52.018;8.542;2024-01-06T09:02:07;4.50;99.90
3055;DHT22;1537;52.018;8.542;2024-01-06T09:05:32;4.40;99.90
3055;DHT22;1537;52.018;8.542;2024-01-06T09:08:57;4.50;99.90
3055;DHT22;1537;52.018;8.542;2024-01-06T09:12:22;4.40;99.90
3055;DHT22;1537;52.018;8.542;2024-01-06T09:15:47;4.40;99.90
3055;DHT22;1537;52.018;8.542;2024-01-06T09:19:11;4.50;99.90
3055;DHT22;1537;52.018;8.542;2024-01-06T09:22:35;4.50;99.90
3055;DHT22;1537;52.018;8.542;2024-01-06T09:25:59;4.40;99.90
3055;DHT22;1537;52.018;8.542;2024-01-06T09:29:24;4.20;99.90
3055;DHT22;1537;52.018;8.542;2024-01-06T09:32:49;4.20;99.90
3055;DHT22;1537;52.018;8.542;2024-01-06T09:36:30;4.30;99.90
3055;DHT22;1537;52.018;8.542;2024-01-06T09:39:54;4.20;99.90
3055;DHT22;1537;52.018;8.542;2024-01-06T09:43:19;4.20;99.90
3055;DHT22;1537;52.018;8.542;2024-01-06T09:50:31;4.20;99.90
3055;DHT22;1537;52.018;8.542;2024-01-06T09:53:57;4.00;99.90
3055;DHT22;1537;52.018;8.542;2024-01-06T09:57:22;4.00;99.90
3055;DHT22;1537;52.018;8.542;2024-01-06T10:00:48;3.90;99.90
3055;DHT22;1537;52.018;8.542;2024-01-06T10:04:15;3.90;99.90
3055;DHT22;1537;52.018;8.542;2024-01-06T10:07:47;3.90;99.90
3055;DHT22;1537;52.018;8.542;2024-01-06T10:11:13;4.00;99.90
3055;DHT22;1537;52.018;8.542;2024-01-06T10:14:38;4.20;99.90
3055;DHT22;1537;52.018;8.542;2024-01-06T10:18:05;4.30;99.90
3055;DHT22;1537;52.018;8.542;2024-01-06T10:21:32;4.50;99.90
3055;DHT22;1537;52.018;8.542;2024-01-06T10:24:57;4.60;99.90
3055;DHT22;1537;52.018;8.542;2024-01-06T10:28:24;4.60;99.90
3055;DHT22;1537;52.018;8.542;2024-01-06T10:31:48;4.70;99.90
3055;DHT22;1537;52.018;8.542;2024-01-06T10:35:18;4.70;99.90
3055;DHT22;1537;52.018;8.542;2024-01-06T10:38:42;4.80;99.90
3055;DHT22;1537;52.018;8.542;2024-01-06T10:42:08;4.80;99.90
3055;DHT22;1537;52.018;8.542;2024-01-06T10:45:35;4.80;99.90
3055;DHT22;1537;52.018;8.542;2024-01-06T10:49:01;4.80;99.90
3055;DHT22;1537;52.018;8.542;2024-01-06T10:52:27;4.80;99.90
3055;DHT22;1537;52.018;8.542;2024-01-06T10:55:52;4.80;99.90
3055;DHT22;1537;52.018;8.542;2024-01-06T10:59:21;4.70;99.90
3055;DHT22;1537;52.018;8.542;2024-01-06T11:02:49;4.50;99.90
3055;DHT22;1537;52.018;8.542;2024-01-06T11:10:20;4.30;99.90
3055;DHT22;1537;52.018;8.542;2024-01-06T11:13:47;4.10;99.90
3055;DHT22;1537;52.018;8.542;2024-01-06T11:17:51;4.10;99.90
3055;DHT22;1537;52.018;8.542;2024-01-06T11:25:33;4.30;99.90
3055;DHT22;1537;52.018;8.542;2024-01-06T11:33:51;4.40;99.90
3055;DHT22;1537;52.018;8.542;2024-01-06T11:37:17;4.40;99.90
3055;DHT22;1537;52.018;8.542;2024-01-06T11:40:42;4.30;99.90
3055;DHT22;1537;52.018;8.542;2024-01-06T11:44:07;4.30;99.90
3055;DHT22;1537;52.018;8.542;2024-01-06T11:47:47;4.30;99.90
3055;DHT22;1537;52.018;8.542;2024-01-06T11:51:13;4.30;99.90
3055;DHT22;1537;52.018;8.542;2024-01-06T11:54:38;4.50;99.90
3055;DHT22;1537;52.018;8.542;2024-01-06T11:58:03;4.60;99.90
3055;DHT22;1537;52.018;8.542;2024-01-06T12:01:29;4.60;99.90
3055;DHT22;1537;52.018;8.542;2024-01-06T12:04:59;4.60;99.90
3055;DHT22;1537;52.018;8.542;2024-01-06T12:08:24;4.70;99.90
3055;DHT22;1537;52.018;8.542;2024-01-06T12:12:01;4.70;99.90
3055;DHT22;1537;52.018;8.542;2024-01-06T12:15:25;4.70;99.90
3055;DHT22;1537;52.018;8.542;2024-01-06T12:18:49;4.80;99.90
3055;DHT22;1537;52.018;8.542;2024-01-06T12:22:14;4.70;99.90
3055;DHT22;1537;52.018;8.542;2024-01-06T12:25:44;4.60;99.90
3055;DHT22;1537;52.018;8.542;2024-01-06T12:29:09;4.60;99.90
3055;DHT22;1537;52.018;8.542;2024-01-06T12:32:34;4.70;99.90
3055;DHT22;1537;52.018;8.542;2024-01-06T12:35:58;4.80;99.90
3055;DHT22;1537;52.018;8.542;2024-01-06T12:39:32;4.90;99.90
3055;DHT22;1537;52.018;8.542;2024-01-06T12:42:57;4.90;99.90
3055;DHT22;1537;52.018;8.542;2024-01-06T12:46:21;5.00;99.90
3055;DHT22;1537;52.018;8.542;2024-01-06T12:49:44;5.00;99.90
3055;DHT22;1537;52.018;8.542;2024-01-06T12:53:08;5.00;99.90
3055;DHT22;1537;52.018;8.542;2024-01-06T12:56:34;5.10;99.90
3055;DHT22;1537;52.018;8.542;2024-01-06T12:59:59;5.20;99.90
3055;DHT22;1537;52.018;8.542;2024-01-06T13:03:23;5.20;99.90
3055;DHT22;1537;52.018;8.542;2024-01-06T13:06:46;5.20;99.90
3055;DHT22;1537;52.018;8.542;2024-01-06T13:10:11;5.20;99.90
3055;DHT22;1537;52.018;8.542;2024-01-06T13:13:35;5.10;99.90
3055;DHT22;1537;52.018;8.542;2024-01-06T13:17:00;5.10;99.90
3055;DHT22;1537;52.018;8.542;2024-01-06T13:20:24;5.00;99.90
3055;DHT22;1537;52.018;8.542;2024-01-06T13:23:48;4.90;99.90
3055;DHT22;1537;52.018;8.542;2024-01-06T13:27:11;4.70;99.90
3055;DHT22;1537;52.018;8.542;2024-01-06T13:30:35;4.70;99.90
3055;DHT22;1537;52.018;8.542;2024-01-06T13:34:03;4.70;99.90
3055;DHT22;1537;52.018;8.542;2024-01-06T13:37:27;4.60;99.90
3055;DHT22;1537;52.018;8.542;2024-01-06T13:40:51;4.50;99.90
3055;DHT22;1537;52.018;8.542;2024-01-06T13:44:15;4.60;99.90
3055;DHT22;1537;52.018;8.542;2024-01-06T13:47:39;4.70;99.90
3055;DHT22;1537;52.018;8.542;2024-01-06T13:51:07;4.70;99.90
3055;DHT22;1537;52.018;8.542;2024-01-06T13:54:31;4.60;99.90
3055;DHT22;1537;52.018;8.542;2024-01-06T13:57:55;4.50;99.90
3055;DHT22;1537;52.018;8.542;2024-01-06T14:01:19;4.40;99.90
3055;DHT22;1537;52.018;8.542;2024-01-06T14:04:43;4.50;99.90
3055;DHT22;1537;52.018;8.542;2024-01-06T14:08:08;4.50;99.90
3055;DHT22;1537;52.018;8.542;2024-01-06T14:11:32;4.30;99.90
3055;DHT22;1537;52.018;8.542;2024-01-06T14:14:56;4.20;99.90
3055;DHT22;1537;52.018;8.542;2024-01-06T14:18:22;4.10;99.90
3055;DHT22;1537;52.018;8.542;2024-01-06T14:21:45;4.00;99.90
3055;DHT22;1537;52.018;8.542;2024-01-06T14:25:11;3.90;99.90
3055;DHT22;1537;52.018;8.542;2024-01-06T14:28:37;4.00;99.90
3055;DHT22;1537;52.018;8.542;2024-01-06T14:32:00;3.90;99.90
3055;DHT22;1537;52.018;8.542;2024-01-06T14:35:24;3.90;99.90
3055;DHT22;1537;52.018;8.542;2024-01-06T14:38:48;4.00;99.90
3055;DHT22;1537;52.018;8.542;2024-01-06T14:42:13;4.10;99.90
3055;DHT22;1537;52.018;8.542;2024-01-06T14:45:38;4.20;99.90
3055;DHT22;1537;52.018;8.542;2024-01-06T14:49:01;4.20;99.90
3055;DHT22;1537;52.018;8.542;2024-01-06T14:52:25;4.30;99.90
3055;DHT22;1537;52.018;8.542;2024-01-06T14:55:50;4.30;99.90
3055;DHT22;1537;52.018;8.542;2024-01-06T14:59:14;4.30;99.90
3055;DHT22;1537;52.018;8.542;2024-01-06T15:02:42;4.40;99.90
3055;DHT22;1537;52.018;8.542;2024-01-06T15:06:08;4.30;99.90
3055;DHT22;1537;52.018;8.542;2024-01-06T15:09:38;4.40;99.90
3055;DHT22;1537;52.018;8.542;2024-01-06T15:13:03;4.40;99.90
3055;DHT22;1537;52.018;8.542;2024-01-06T15:16:28;4.40;99.90
3055;DHT22;1537;52.018;8.542;2024-01-06T15:19:51;4.50;99.90
3055;DHT22;1537;52.018;8.542;2024-01-06T15:23:15;4.50;99.90
3055;DHT22;1537;52.018;8.542;2024-01-06T15:26:41;4.50;99.90
3055;DHT22;1537;52.018;8.542;2024-01-06T15:30:05;4.60;99.90
3055;DHT22;1537;52.018;8.542;2024-01-06T15:33:32;4.40;99.90
3055;DHT22;1537;52.018;8.542;2024-01-06T15:36:56;4.30;99.90
3055;DHT22;1537;52.018;8.542;2024-01-06T15:40:20;4.30;99.90
3055;DHT22;1537;52.018;8.542;2024-01-06T15:43:44;4.30;99.90
3055;DHT22;1537;52.018;8.542;2024-01-06T15:47:08;4.10;99.90
3055;DHT22;1537;52.018;8.542;2024-01-06T15:50:35;3.90;99.90
3055;DHT22;1537;52.018;8.542;2024-01-06T15:53:59;3.80;99.90
3055;DHT22;1537;52.018;8.542;2024-01-06T15:57:26;3.60;99.90
3055;DHT22;1537;52.018;8.542;2024-01-06T16:00:53;3.60;99.90
3055;DHT22;1537;52.018;8.542;2024-01-06T16:04:17;3.50;99.90
3055;DHT22;1537;52.018;8.542;2024-01-06T16:07:42;3.50;99.90
3055;DHT22;1537;52.018;8.542;2024-01-06T16:11:06;3.40;99.90
3055;DHT22;1537;52.018;8.542;2024-01-06T16:14:30;3.30;99.90
3055;DHT22;1537;52.018;8.542;2024-01-06T16:17:57;3.20;99.90
3055;DHT22;1537;52.018;8.542;2024-01-06T16:21:21;3.20;99.90
3055;DHT22;1537;52.018;8.542;2024-01-06T16:24:47;3.20;99.90
3055;DHT22;1537;52.018;8.542;2024-01-06T16:28:10;3.20;99.90
3055;DHT22;1537;52.018;8.542;2024-01-06T16:31:34;3.00;99.90
3055;DHT22;1537;52.018;8.542;2024-01-06T16:34:58;2.80;99.90
3055;DHT22;1537;52.018;8.542;2024-01-06T16:38:22;2.80;99.90
3055;DHT22;1537;52.018;8.542;2024-01-06T16:41:47;2.80;99.90
3055;DHT22;1537;52.018;8.542;2024-01-06T16:45:13;2.80;99.90
3055;DHT22;1537;52.018;8.542;2024-01-06T16:48:37;2.80;99.90
3055;DHT22;1537;52.018;8.542;2024-01-06T16:52:04;2.80;99.90
3055;DHT22;1537;52.018;8.542;2024-01-06T16:55:28;2.80;99.90
3055;DHT22;1537;52.018;8.542;2024-01-06T16:58:53;2.70;99.90
3055;DHT22;1537;52.018;8.542;2024-01-06T17:02:16;2.60;99.90
3055;DHT22;1537;52.018;8.542;2024-01-06T17:05:40;2.60;99.90
3055;DHT22;1537;52.018;8.542;2024-01-06T17:09:04;2.50;99.90
3055;DHT22;1537;52.018;8.542;2024-01-06T17:12:28;2.50;99.90
3055;DHT22;1537;52.018;8.542;2024-01-06T17:15:53;2.40;99.90
3055;DHT22;1537;52.018;8.542;2024-01-06T17:19:17;2.30;99.90
3055;DHT22;1537;52.018;8.542;2024-01-06T17:22:40;2.30;99.90
3055;DHT22;1537;52.018;8.542;2024-01-06T17:26:06;2.20;99.90
3055;DHT22;1537;52.018;8.542;2024-01-06T17:29:32;2.30;99.90
3055;DHT22;1537;52.018;8.542;2024-01-06T17:32:58;2.20;99.90
3055;DHT22;1537;52.018;8.542;2024-01-06T17:36:22;2.20;99.90
3055;DHT22;1537;52.018;8.542;2024-01-06T17:39:46;2.20;99.90
3055;DHT22;1537;52.018;8.542;2024-01-06T17:43:10;2.20;99.90
3055;DHT22;1537;52.018;8.542;2024-01-06T17:46:35;2.10;99.90
3055;DHT22;1537;52.018;8.542;2024-01-06T17:50:00;2.20;99.90
3055;DHT22;1537;52.018;8.542;2024-01-06T17:53:24;2.10;99.90
3055;DHT22;1537;52.018;8.542;2024-01-06T17:56:47;2.20;99.90
3055;DHT22;1537;52.018;8.542;2024-01-06T18:00:11;2.20;99.90
3055;DHT22;1537;52.018;8.542;2024-01-06T18:03:36;2.20;99.90
3055;DHT22;1537;52.018;8.542;2024-01-06T18:07:01;2.20;99.90
3055;DHT22;1537;52.018;8.542;2024-01-06T18:10:25;2.20;99.90
3055;DHT22;1537;52.018;8.542;2024-01-06T18:13:50;2.20;99.90
3055;DHT22;1537;52.018;8.542;2024-01-06T18:17:13;2.10;99.90
3055;DHT22;1537;52.018;8.542;2024-01-06T18:20:37;2.10;99.90
3055;DHT22;1537;52.018;8.542;2024-01-06T18:24:04;2.20;99.90
3055;DHT22;1537;52.018;8.542;2024-01-06T18:27:28;2.10;99.90
3055;DHT22;1537;52.018;8.542;2024-01-06T18:30:58;2.10;99.90
3055;DHT22;1537;52.018;8.542;2024-01-06T18:34:31;2.10;99.90
3055;DHT22;1537;52.018;8.542;2024-01-06T18:37:58;2.10;99.90
3055;DHT22;1537;52.018;8.542;2024-01-06T18:41:24;2.10;99.90
3055;DHT22;1537;52.018;8.542;2024-01-06T18:44:48;2.20;99.90
3055;DHT22;1537;52.018;8.542;2024-01-06T18:48:12;2.20;99.90
3055;DHT22;1537;52.018;8.542;2024-01-06T18:51:39;2.20;99.90
3055;DHT22;1537;52.018;8.542;2024-01-06T18:55:03;2.20;99.90
3055;DHT22;1537;52.018;8.542;2024-01-06T18:58:28;2.20;99.90
3055;DHT22;1537;52.018;8.542;2024-01-06T19:01:52;2.10;99.90
3055;DHT22;1537;52.018;8.542;2024-01-06T19:05:16;2.10;99.90
3055;DHT22;1537;52.018;8.542;2024-01-06T19:08:40;2.10;99.90
3055;DHT22;1537;52.018;8.542;2024-01-06T19:12:04;2.10;99.90
3055;DHT22;1537;52.018;8.542;2024-01-06T19:15:29;2.10;99.90
3055;DHT22;1537;52.018;8.542;2024-01-06T19:18:53;2.00;99.90
3055;DHT22;1537;52.018;8.542;2024-01-06T19:22:17;2.00;99.90
3055;DHT22;1537;52.018;8.542;2024-01-06T19:25:41;2.00;99.90
3055;DHT22;1537;52.018;8.542;2024-01-06T19:29:05;1.80;99.90
3055;DHT22;1537;52.018;8.542;2024-01-06T19:32:31;1.80;99.90
3055;DHT22;1537;52.018;8.542;2024-01-06T19:35:55;1.80;99.90
3055;DHT22;1537;52.018;8.542;2024-01-06T19:39:22;1.80;99.90
3055;DHT22;1537;52.018;8.542;2024-01-06T19:42:47;1.70;99.90
3055;DHT22;1537;52.018;8.542;2024-01-06T19:46:11;1.80;99.90
3055;DHT22;1537;52.018;8.542;2024-01-06T19:49:36;1.80;99.90
3055;DHT22;1537;52.018;8.542;2024-01-06T19:53:01;1.70;99.90
3055;DHT22;1537;52.018;8.542;2024-01-06T19:56:24;1.70;99.90
3055;DHT22;1537;52.018;8.542;2024-01-06T19:59:48;1.70;99.90
3055;DHT22;1537;52.018;8.542;2024-01-06T20:03:14;1.70;99.90
3055;DHT22;1537;52.018;8.542;2024-01-06T20:06:39;1.60;99.90
3055;DHT22;1537;52.018;8.542;2024-01-06T20:10:03;1.60;99.90
3055;DHT22;1537;52.018;8.542;2024-01-06T20:13:27;1.60;99.90
3055;DHT22;1537;52.018;8.542;2024-01-06T20:16:51;1.50;99.90
3055;DHT22;1537;52.018;8.542;2024-01-06T20:20:17;1.50;99.90
3055;DHT22;1537;52.018;8.542;2024-01-06T20:23:42;1.50;99.90
3055;DHT22;1537;52.018;8.542;2024-01-06T20:27:06;1.40;99.90
3055;DHT22;1537;52.018;8.542;2024-01-06T20:30:34;1.50;99.90
3055;DHT22;1537;52.018;8.542;2024-01-06T20:33:59;1.50;99.90
3055;DHT22;1537;52.018;8.542;2024-01-06T20:37:28;1.50;99.90
3055;DHT22;1537;52.018;8.542;2024-01-06T20:40:53;1.50;99.90
3055;DHT22;1537;52.018;8.542;2024-01-06T20:44:22;1.50;99.90
3055;DHT22;1537;52.018;8.542;2024-01-06T20:47:48;1.40;99.90
3055;DHT22;1537;52.018;8.542;2024-01-06T20:51:15;1.40;99.90
3055;DHT22;1537;52.018;8.542;2024-01-06T20:54:39;1.40;99.90
3055;DHT22;1537;52.018;8.542;2024-01-06T20:58:04;1.40;99.90
3055;DHT22;1537;52.018;8.542;2024-01-06T21:01:28;1.40;99.90
3055;DHT22;1537;52.018;8.542;2024-01-06T21:04:52;1.40;99.90
3055;DHT22;1537;52.018;8.542;2024-01-06T21:08:16;1.40;99.90
3055;DHT22;1537;52.018;8.542;2024-01-06T21:11:42;1.30;99.90
3055;DHT22;1537;52.018;8.542;2024-01-06T21:15:07;1.30;99.90
3055;DHT22;1537;52.018;8.542;2024-01-06T21:18:31;1.30;99.90
3055;DHT22;1537;52.018;8.542;2024-01-06T21:21:56;1.30;99.90
3055;DHT22;1537;52.018;8.542;2024-01-06T21:25:20;1.30;99.90
3055;DHT22;1537;52.018;8.542;2024-01-06T21:28:45;1.30;99.90
3055;DHT22;1537;52.018;8.542;2024-01-06T21:32:11;1.20;99.90
3055;DHT22;1537;52.018;8.542;2024-01-06T21:35:35;1.20;99.90
3055;DHT22;1537;52.018;8.542;2024-01-06T21:38:59;1.20;99.90
3055;DHT22;1537;52.018;8.542;2024-01-06T21:42:22;1.10;99.90
3055;DHT22;1537;52.018;8.542;2024-01-06T21:45:47;1.10;99.90
3055;DHT22;1537;52.018;8.542;2024-01-06T21:49:21;1.00;99.90
3055;DHT22;1537;52.018;8.542;2024-01-06T21:52:47;1.00;99.90
3055;DHT22;1537;52.018;8.542;2024-01-06T21:56:11;1.10;99.90
3055;DHT22;1537;52.018;8.542;2024-01-06T21:59:40;1.00;99.90
3055;DHT22;1537;52.018;8.542;2024-01-06T22:03:10;0.90;99.90
3055;DHT22;1537;52.018;8.542;2024-01-06T22:06:45;0.90;99.90
3055;DHT22;1537;52.018;8.542;2024-01-06T22:10:09;0.80;99.90
3055;DHT22;1537;52.018;8.542;2024-01-06T22:13:41;0.80;99.90
3055;DHT22;1537;52.018;8.542;2024-01-06T22:17:07;0.90;99.90
3055;DHT22;1537;52.018;8.542;2024-01-06T22:20:33;0.80;99.90
3055;DHT22;1537;52.018;8.542;2024-01-06T22:23:58;0.80;99.90
3055;DHT22;1537;52.018;8.542;2024-01-06T22:27:22;0.80;99.90
3055;DHT22;1537;52.018;8.542;2024-01-06T22:30:45;0.80;99.90
3055;DHT22;1537;52.018;8.542;2024-01-06T22:34:10;0.80;99.90
3055;DHT22;1537;52.018;8.542;2024-01-06T22:37:35;0.80;99.90
3055;DHT22;1537;52.018;8.542;2024-01-06T22:41:00;0.80;99.90
3055;DHT22;1537;52.018;8.542;2024-01-06T22:44:25;0.80;99.90
3055;DHT22;1537;52.018;8.542;2024-01-06T22:47:48;0.80;99.90
3055;DHT22;1537;52.018;8.542;2024-01-06T22:51:15;0.70;99.90
3055;DHT22;1537;52.018;8.542;2024-01-06T22:54:41;0.70;99.90
3055;DHT22;1537;52.018;8.542;2024-01-06T22:58:09;0.70;99.90